Time;durP1;ratioP1;P1;durP2;ratioP2;P2;SDS_P1;SDS_P2;PMS_P1;PMS_P2;Temp;Humidity;BMP_temperature;BMP_pressure;BME280_temperature;BME280_humidity;BME280_pressure;Samples;Min_cycle;Max_cycle;Signal;HPM_P1;HPM_P2
2021/08/17 00:01:17;;;;;;;8.20;4.72;;;;;;;;;;5054902;28;20021;-59
2021/08/17 00:03:43;;;;;;;7.35;3.72;;;;;;;;;;5054790;28;20127;-58
2021/08/17 00:06:09;;;;;;;5.20;3.90;;;;;;;;;;5055203;28;20031;-59
2021/08/17 00:08:35;;;;;;;6.57;4.25;;;;;;;;;;5054380;28;20025;-58
2021/08/17 00:11:01;;;;;;;5.93;4.00;;;;;;;;;;5053355;28;20083;-58
2021/08/17 00:13:27;;;;;;;7.57;4.60;;;;;;;;;;5055751;28;20034;-59
2021/08/17 00:15:53;;;;;;;7.75;4.43;;;;;;;;;;5054982;28;20037;-59
2021/08/17 00:18:19;;;;;;;6.90;4.75;;;;;;;;;;5054688;28;20084;-58
2021/08/17 00:20:46;;;;;;;7.03;4.18;;;;;;;;;;5054310;28;20028;-59
2021/08/17 00:23:12;;;;;;;5.72;4.00;;;;;;;;;;5054169;28;20372;-58
2021/08/17 00:25:43;;;;;;;10.90;5.38;;;;;;;;;;5054418;28;20148;-58
2021/08/17 00:28:09;;;;;;;7.95;5.35;;;;;;;;;;5054581;28;20463;-58
2021/08/17 00:30:35;;;;;;;9.50;4.68;;;;;;;;;;5053412;28;20074;-59
2021/08/17 00:33:01;;;;;;;9.25;5.45;;;;;;;;;;5053340;28;20025;-58
2021/08/17 00:35:27;;;;;;;9.82;4.97;;;;;;;;;;5036781;28;20036;-58
2021/08/17 00:37:53;;;;;;;7.10;4.22;;;;;;;;;;5037254;28;20021;-59
2021/08/17 00:40:23;;;;;;;9.35;4.93;;;;;;;;;;5054484;28;20344;-58
2021/08/17 00:42:49;;;;;;;7.05;4.22;;;;;;;;;;5053544;28;20025;-58
2021/08/17 00:45:22;;;;;;;9.95;5.40;;;;;;;;;;5055194;28;20033;-58
2021/08/17 00:47:49;;;;;;;8.77;3.97;;;;;;;;;;5054400;28;20023;-59
2021/08/17 00:50:15;;;;;;;7.32;4.35;;;;;;;;;;5054296;28;20069;-59
2021/08/17 00:52:42;;;;;;;8.27;5.18;;;;;;;;;;5053356;28;20467;-59
2021/08/17 00:55:08;;;;;;;8.10;5.45;;;;;;;;;;5052976;28;20131;-58
2021/08/17 00:57:34;;;;;;;9.48;4.45;;;;;;;;;;5054166;28;20379;-59
2021/08/17 01:00:00;;;;;;;5.88;4.55;;;;;;;;;;5053699;28;20526;-59
2021/08/17 01:02:26;;;;;;;6.72;4.72;;;;;;;;;;5054941;28;20115;-58
2021/08/17 01:04:52;;;;;;;8.73;4.65;;;;;;;;;;5054031;28;20348;-59
2021/08/17 01:07:18;;;;;;;5.18;4.13;;;;;;;;;;5053275;28;20033;-58
2021/08/17 01:09:44;;;;;;;5.47;4.45;;;;;;;;;;5054275;28;20017;-59
2021/08/17 01:12:11;;;;;;;9.60;4.57;;;;;;;;;;5053547;28;20444;-59
2021/08/17 01:14:37;;;;;;;7.28;5.00;;;;;;;;;;5052660;28;20099;-59
2021/08/17 01:17:03;;;;;;;6.22;4.00;;;;;;;;;;5053819;28;20106;-59
2021/08/17 01:19:29;;;;;;;5.93;4.20;;;;;;;;;;5053646;28;20108;-59
2021/08/17 01:21:55;;;;;;;6.47;4.53;;;;;;;;;;5054097;28;20029;-59
2021/08/17 01:24:21;;;;;;;6.28;4.07;;;;;;;;;;5052896;28;20478;-58
2021/08/17 01:26:50;;;;;;;7.57;4.40;;;;;;;;;;5054421;28;20052;-59
2021/08/17 01:29:16;;;;;;;6.38;4.43;;;;;;;;;;5053661;28;20461;-58
2021/08/17 01:31:43;;;;;;;10.63;4.88;;;;;;;;;;5054238;28;20461;-58
2021/08/17 01:34:09;;;;;;;7.32;4.40;;;;;;;;;;5053560;28;20025;-58
2021/08/17 01:36:35;;;;;;;10.90;4.13;;;;;;;;;;5053676;28;20104;-58
2021/08/17 01:39:01;;;;;;;7.43;3.88;;;;;;;;;;5051779;28;20454;-59
2021/08/17 01:41:30;;;;;;;10.18;4.78;;;;;;;;;;5052127;28;20064;-58
2021/08/17 01:43:56;;;;;;;5.65;3.95;;;;;;;;;;5053596;28;20060;-59
2021/08/17 01:46:22;;;;;;;9.15;4.38;;;;;;;;;;5054370;28;20065;-58
2021/08/17 01:48:48;;;;;;;10.15;3.97;;;;;;;;;;5053104;28;20033;-58
2021/08/17 01:51:14;;;;;;;6.07;3.80;;;;;;;;;;5054328;28;20052;-59
2021/08/17 01:53:40;;;;;;;6.68;3.92;;;;;;;;;;5036271;28;20029;-59
2021/08/17 01:56:10;;;;;;;5.38;3.65;;;;;;;;;;5053367;28;20036;-58
2021/08/17 01:58:36;;;;;;;5.93;4.55;;;;;;;;;;5054189;28;20027;-58
2021/08/17 02:01:03;;;;;;;5.28;2.92;;;;;;;;;;5053392;28;20025;-58
2021/08/17 02:03:29;;;;;;;6.28;4.45;;;;;;;;;;5053452;28;20395;-58
2021/08/17 02:05:55;;;;;;;5.72;3.97;;;;;;;;;;5052936;28;20037;-58
2021/08/17 02:08:21;;;;;;;11.05;4.90;;;;;;;;;;5052680;28;20025;-58
2021/08/17 02:10:49;;;;;;;7.38;3.67;;;;;;;;;;5052745;28;20372;-58
2021/08/17 02:13:18;;;;;;;7.28;4.80;;;;;;;;;;5053232;28;20029;-58
2021/08/17 02:15:45;;;;;;;10.50;4.53;;;;;;;;;;5051993;28;20029;-58
2021/08/17 02:18:11;;;;;;;7.65;4.40;;;;;;;;;;5052054;28;20056;-58
2021/08/17 02:20:37;;;;;;;7.75;4.00;;;;;;;;;;5053535;28;20418;-58
2021/08/17 02:23:03;;;;;;;8.18;4.60;;;;;;;;;;5053226;28;20040;-59
2021/08/17 02:25:29;;;;;;;6.78;3.88;;;;;;;;;;5053079;28;20122;-58
2021/08/17 02:27:55;;;;;;;5.70;4.47;;;;;;;;;;5053078;28;20467;-58
2021/08/17 02:30:21;;;;;;;8.32;4.55;;;;;;;;;;5053926;28;20049;-58
2021/08/17 02:32:49;;;;;;;6.53;4.15;;;;;;;;;;5053162;28;20036;-58
2021/08/17 02:35:15;;;;;;;4.68;3.42;;;;;;;;;;5053563;28;20029;-58
2021/08/17 02:37:42;;;;;;;7.43;4.35;;;;;;;;;;5051788;28;20448;-58
2021/08/17 02:40:08;;;;;;;7.32;4.20;;;;;;;;;;5051835;28;20082;-58
2021/08/17 02:42:34;;;;;;;7.22;4.05;;;;;;;;;;5052090;28;20371;-58
2021/08/17 02:45:00;;;;;;;6.90;4.07;;;;;;;;;;5052931;28;20021;-58
2021/08/17 02:47:26;;;;;;;9.60;4.95;;;;;;;;;;5052908;28;20036;-58
2021/08/17 02:49:53;;;;;;;6.28;4.00;;;;;;;;;;5035795;28;20033;-58
2021/08/17 02:52:19;;;;;;;6.50;3.65;;;;;;;;;;5056476;28;20039;-58
2021/08/17 02:54:48;;;;;;;7.22;4.68;;;;;;;;;;5056566;28;20061;-58
2021/08/17 02:57:14;;;;;;;5.28;3.72;;;;;;;;;;5056972;28;20371;-58
2021/08/17 02:59:40;;;;;;;5.28;3.20;;;;;;;;;;5054846;28;20029;-59
2021/08/17 03:02:05;;;;;;;4.82;3.10;;;;;;;;;;5056658;28;20025;-59
2021/08/17 03:04:31;;;;;;;11.15;4.70;;;;;;;;;;5056279;28;20116;-59
2021/08/17 03:06:57;;;;;;;6.90;4.18;;;;;;;;;;5056242;28;20032;-59
2021/08/17 03:09:23;;;;;;;6.88;5.28;;;;;;;;;;5056246;28;20025;-59
2021/08/17 03:11:49;;;;;;;7.63;4.30;;;;;;;;;;5056774;28;20112;-58
2021/08/17 03:14:16;;;;;;;8.23;3.80;;;;;;;;;;5038224;28;20083;-59
2021/08/17 03:16:42;;;;;;;6.35;4.32;;;;;;;;;;5055760;28;20437;-59
2021/08/17 03:19:08;;;;;;;6.55;3.85;;;;;;;;;;5056023;28;20366;-59
2021/08/17 03:21:34;;;;;;;7.30;4.15;;;;;;;;;;5055593;28;20029;-58
2021/08/17 03:24:01;;;;;;;5.32;3.92;;;;;;;;;;5055932;28;20049;-59
2021/08/17 03:26:27;;;;;;;5.22;3.92;;;;;;;;;;5056081;28;20049;-59
2021/08/17 03:28:53;;;;;;;6.47;3.92;;;;;;;;;;5055826;28;20035;-59
2021/08/17 03:31:20;;;;;;;5.63;4.35;;;;;;;;;;5056476;28;20029;-59
2021/08/17 03:33:46;;;;;;;7.80;4.53;;;;;;;;;;5056082;28;20466;-59
2021/08/17 03:36:12;;;;;;;4.55;3.05;;;;;;;;;;5054482;28;20459;-59
2021/08/17 03:38:38;;;;;;;7.43;3.95;;;;;;;;;;5056203;28;20509;-58
2021/08/17 03:41:04;;;;;;;8.23;5.00;;;;;;;;;;5055261;28;20162;-58
2021/08/17 03:43:31;;;;;;;9.18;4.18;;;;;;;;;;5054919;28;20078;-59
2021/08/17 03:45:59;;;;;;;5.13;4.13;;;;;;;;;;5056013;28;20029;-58
2021/08/17 03:48:26;;;;;;;5.65;4.30;;;;;;;;;;5055453;28;20021;-58
2021/08/17 03:50:52;;;;;;;6.07;4.50;;;;;;;;;;5055071;28;20029;-58
2021/08/17 03:53:18;;;;;;;4.53;3.28;;;;;;;;;;5055695;28;20041;-58
2021/08/17 03:55:44;;;;;;;4.13;3.30;;;;;;;;;;5055400;28;20491;-59
2021/08/17 03:58:13;;;;;;;6.90;5.00;;;;;;;;;;5054678;28;20087;-59
2021/08/17 04:00:39;;;;;;;6.57;3.83;;;;;;;;;;5055133;28;20029;-59
2021/08/17 04:03:05;;;;;;;6.43;3.95;;;;;;;;;;5053737;28;20035;-59
2021/08/17 04:05:31;;;;;;;6.95;4.07;;;;;;;;;;5055233;28;20104;-58
2021/08/17 04:07:57;;;;;;;6.25;4.43;;;;;;;;;;5055113;28;20057;-58
2021/08/17 04:10:23;;;;;;;6.53;3.90;;;;;;;;;;5054630;28;20036;-59
2021/08/17 04:12:51;;;;;;;6.88;4.13;;;;;;;;;;5054646;28;20060;-59
2021/08/17 04:15:17;;;;;;;6.22;3.80;;;;;;;;;;5054972;28;20029;-58
2021/08/17 04:17:43;;;;;;;5.88;3.78;;;;;;;;;;5054270;28;20025;-59
2021/08/17 04:20:11;;;;;;;6.47;4.10;;;;;;;;;;5054865;28;20419;-59
2021/08/17 04:22:37;;;;;;;9.93;4.97;;;;;;;;;;5055143;28;20029;-59
2021/08/17 04:25:04;;;;;;;5.22;3.83;;;;;;;;;;5054367;28;20041;-59
2021/08/17 04:27:30;;;;;;;6.53;3.83;;;;;;;;;;5054879;28;20029;-59
2021/08/17 04:29:56;;;;;;;6.25;3.80;;;;;;;;;;5054749;28;20056;-59
2021/08/17 04:32:22;;;;;;;12.00;4.90;;;;;;;;;;5054961;28;20040;-59
2021/08/17 04:34:48;;;;;;;6.07;3.95;;;;;;;;;;5054252;28;20036;-59
2021/08/17 04:37:18;;;;;;;8.55;4.10;;;;;;;;;;5053393;28;20029;-59
2021/08/17 04:39:44;;;;;;;7.70;4.55;;;;;;;;;;5054606;28;20435;-59
2021/08/17 04:42:10;;;;;;;6.57;4.70;;;;;;;;;;5055048;28;20032;-59
2021/08/17 04:44:36;;;;;;;6.85;5.00;;;;;;;;;;5052862;28;20226;-59
2021/08/17 04:47:02;;;;;;;6.60;4.32;;;;;;;;;;5053309;28;20059;-59
2021/08/17 04:49:28;;;;;;;6.25;4.43;;;;;;;;;;5055139;28;20039;-59
2021/08/17 04:51:54;;;;;;;9.27;5.20;;;;;;;;;;5055045;28;20017;-59
2021/08/17 04:54:20;;;;;;;5.80;4.10;;;;;;;;;;5053905;28;20040;-59
2021/08/17 04:56:46;;;;;;;6.13;3.95;;;;;;;;;;5054261;28;20024;-59
2021/08/17 04:59:12;;;;;;;7.35;4.63;;;;;;;;;;5054111;28;20032;-59
2021/08/17 05:01:38;;;;;;;4.38;3.88;;;;;;;;;;5054744;28;20021;-59
2021/08/17 05:04:04;;;;;;;6.18;4.03;;;;;;;;;;5054679;28;20362;-59
2021/08/17 05:06:30;;;;;;;9.30;3.63;;;;;;;;;;5036378;28;20029;-59
2021/08/17 05:08:56;;;;;;;5.78;4.10;;;;;;;;;;5052668;28;20033;-59
2021/08/17 05:11:22;;;;;;;5.50;3.58;;;;;;;;;;5036796;28;20039;-59
2021/08/17 05:13:48;;;;;;;7.57;5.15;;;;;;;;;;5053120;28;20427;-59
2021/08/17 05:16:20;;;;;;;4.97;3.60;;;;;;;;;;5053654;28;20029;-59
2021/08/17 05:18:46;;;;;;;6.90;4.15;;;;;;;;;;5053517;28;20028;-59
2021/08/17 05:21:12;;;;;;;6.07;4.22;;;;;;;;;;5053833;28;20091;-59
2021/08/17 05:23:38;;;;;;;6.03;4.20;;;;;;;;;;5054152;28;20451;-59
2021/08/17 05:26:04;;;;;;;6.43;4.03;;;;;;;;;;5035830;28;20049;-59
2021/08/17 05:28:30;;;;;;;9.75;5.32;;;;;;;;;;5052676;28;20040;-59
2021/08/17 05:30:59;;;;;;;5.78;4.38;;;;;;;;;;5053084;28;20021;-59
2021/08/17 05:33:25;;;;;;;9.18;4.32;;;;;;;;;;5036574;28;20067;-59
2021/08/17 05:35:51;;;;;;;6.65;3.63;;;;;;;;;;5053977;28;20390;-59
2021/08/17 05:38:17;;;;;;;11.82;5.40;;;;;;;;;;5053671;28;20032;-59
2021/08/17 05:40:43;;;;;;;6.15;4.35;;;;;;;;;;5053619;28;20044;-59
2021/08/17 05:43:09;;;;;;;9.75;4.38;;;;;;;;;;5052914;28;20039;-59
2021/08/17 05:45:35;;;;;;;6.20;3.80;;;;;;;;;;5052334;28;20055;-59
2021/08/17 05:48:01;;;;;;;6.07;4.28;;;;;;;;;;5053480;28;20032;-59
2021/08/17 05:50:27;;;;;;;6.63;4.30;;;;;;;;;;5053523;28;20120;-59
2021/08/17 05:52:53;;;;;;;5.80;4.40;;;;;;;;;;5052625;28;20029;-59
2021/08/17 05:55:19;;;;;;;7.03;4.60;;;;;;;;;;5054091;28;20037;-59
2021/08/17 05:57:59;;;;;;;5.90;3.97;;;;;;;;;;5053431;28;20021;-59
2021/08/17 06:00:25;;;;;;;7.70;4.00;;;;;;;;;;5053497;28;20030;-59
2021/08/17 06:02:51;;;;;;;5.18;3.10;;;;;;;;;;5053749;28;20029;-59
2021/08/17 06:05:17;;;;;;;5.57;3.70;;;;;;;;;;5053453;28;20474;-59
2021/08/17 06:07:47;;;;;;;6.00;4.10;;;;;;;;;;5053316;28;20098;-59
2021/08/17 06:10:16;;;;;;;8.27;4.33;;;;;;;;;;5053303;28;20052;-59
2021/08/17 06:12:42;;;;;;;5.15;3.47;;;;;;;;;;5036480;28;20032;-59
2021/08/17 06:15:09;;;;;;;5.28;3.58;;;;;;;;;;5053360;28;20075;-59
2021/08/17 06:17:35;;;;;;;4.60;4.03;;;;;;;;;;5053307;28;20017;-59
2021/08/17 06:20:01;;;;;;;5.40;4.10;;;;;;;;;;5053267;28;20029;-59
2021/08/17 06:22:27;;;;;;;4.88;3.30;;;;;;;;;;5052315;28;20451;-59
2021/08/17 06:24:56;;;;;;;5.95;3.92;;;;;;;;;;5054852;28;20055;-59
2021/08/17 06:27:22;;;;;;;6.32;3.92;;;;;;;;;;5057430;28;20029;-59
2021/08/17 06:29:48;;;;;;;5.85;3.88;;;;;;;;;;5056795;28;20025;-59
2021/08/17 06:32:14;;;;;;;5.05;3.58;;;;;;;;;;5056497;28;20029;-59
2021/08/17 06:34:40;;;;;;;6.65;3.97;;;;;;;;;;5055382;28;20123;-59
2021/08/17 06:37:08;;;;;;;5.63;4.00;;;;;;;;;;5056021;28;20029;-59
2021/08/17 06:39:34;;;;;;;6.03;4.13;;;;;;;;;;5056848;28;20032;-59
2021/08/17 06:42:00;;;;;;;7.32;4.32;;;;;;;;;;5055851;28;20033;-59
2021/08/17 06:44:26;;;;;;;6.15;3.85;;;;;;;;;;5055494;28;20379;-59
2021/08/17 06:46:52;;;;;;;5.78;4.45;;;;;;;;;;5055459;28;20463;-59
2021/08/17 06:49:21;;;;;;;6.47;4.18;;;;;;;;;;5056644;28;20028;-59
2021/08/17 06:51:47;;;;;;;8.00;4.60;;;;;;;;;;5057536;28;20028;-59
2021/08/17 06:54:13;;;;;;;7.78;4.10;;;;;;;;;;5055333;28;20478;-59
2021/08/17 06:56:39;;;;;;;8.07;4.82;;;;;;;;;;5055335;28;20032;-59
2021/08/17 06:59:05;;;;;;;9.52;4.43;;;;;;;;;;5056982;28;20033;-59
2021/08/17 07:01:31;;;;;;;6.40;4.15;;;;;;;;;;5055437;28;20111;-59
2021/08/17 07:03:58;;;;;;;7.35;4.22;;;;;;;;;;5056345;28;20057;-59
2021/08/17 07:06:24;;;;;;;6.75;4.68;;;;;;;;;;5038696;28;20097;-59
2021/08/17 07:08:50;;;;;;;7.10;4.55;;;;;;;;;;5056316;28;20086;-59
2021/08/17 07:11:16;;;;;;;9.13;4.72;;;;;;;;;;5055471;28;20029;-59
2021/08/17 07:13:42;;;;;;;8.30;5.10;;;;;;;;;;5056497;28;20033;-59
2021/08/17 07:16:08;;;;;;;7.47;4.97;;;;;;;;;;5054899;28;20075;-60
2021/08/17 07:18:35;;;;;;;6.35;4.90;;;;;;;;;;5056199;28;20032;-59
2021/08/17 07:21:01;;;;;;;8.48;5.13;;;;;;;;;;5055982;28;20025;-59
2021/08/17 07:23:27;;;;;;;8.38;5.22;;;;;;;;;;5056577;28;20036;-59
2021/08/17 07:25:53;;;;;;;6.65;4.78;;;;;;;;;;5055731;28;20067;-59
2021/08/17 07:28:20;;;;;;;7.28;4.78;;;;;;;;;;5056200;28;20450;-59
2021/08/17 07:30:46;;;;;;;5.50;4.07;;;;;;;;;;5055834;28;20021;-59
2021/08/17 07:33:13;;;;;;;5.72;4.47;;;;;;;;;;5056509;28;20056;-59
2021/08/17 07:35:39;;;;;;;6.85;4.88;;;;;;;;;;5055484;28;20126;-59
2021/08/17 07:38:05;;;;;;;8.68;5.38;;;;;;;;;;5055450;28;20021;-59
2021/08/17 07:40:31;;;;;;;9.27;6.07;;;;;;;;;;5055661;28;20033;-59
2021/08/17 07:42:57;;;;;;;7.22;4.72;;;;;;;;;;5054013;28;20504;-59
2021/08/17 07:45:24;;;;;;;7.05;5.22;;;;;;;;;;5054569;28;20029;-59
2021/08/17 07:47:49;;;;;;;6.97;5.20;;;;;;;;;;5054465;28;20029;-59
2021/08/17 07:50:15;;;;;;;9.20;5.95;;;;;;;;;;5055364;28;20028;-59
2021/08/17 07:52:41;;;;;;;5.88;4.20;;;;;;;;;;5055410;28;20090;-59
2021/08/17 07:55:09;;;;;;;7.50;4.53;;;;;;;;;;5054414;28;20028;-59
2021/08/17 07:57:36;;;;;;;11.93;5.43;;;;;;;;;;5055277;28;20450;-59
2021/08/17 08:00:03;;;;;;;6.95;4.53;;;;;;;;;;5055330;28;20032;-59
2021/08/17 08:02:29;;;;;;;8.07;4.97;;;;;;;;;;5055533;28;20068;-59
2021/08/17 08:04:55;;;;;;;7.75;5.40;;;;;;;;;;5055708;28;20033;-59
2021/08/17 08:07:21;;;;;;;5.90;4.32;;;;;;;;;;5054979;28;20348;-59
2021/08/17 08:09:47;;;;;;;5.80;3.90;;;;;;;;;;5055368;28;20063;-59
2021/08/17 08:12:13;;;;;;;6.57;4.13;;;;;;;;;;5055529;28;20366;-59
2021/08/17 08:14:42;;;;;;;7.28;4.57;;;;;;;;;;5055443;28;20021;-59
2021/08/17 08:17:08;;;;;;;5.38;3.55;;;;;;;;;;5053694;28;20021;-59
2021/08/17 08:19:35;;;;;;;5.80;4.30;;;;;;;;;;5053635;28;20089;-59
2021/08/17 08:22:01;;;;;;;5.72;4.53;;;;;;;;;;5054923;28;20017;-59
2021/08/17 08:24:27;;;;;;;7.45;4.15;;;;;;;;;;5055064;28;20451;-59
2021/08/17 08:26:53;;;;;;;6.03;4.10;;;;;;;;;;5053468;28;20056;-59
2021/08/17 08:29:19;;;;;;;9.05;5.00;;;;;;;;;;5053375;28;20056;-59
2021/08/17 08:31:45;;;;;;;6.75;5.00;;;;;;;;;;5037486;28;20067;-59
2021/08/17 08:34:11;;;;;;;5.93;4.38;;;;;;;;;;5053822;28;20183;-59
2021/08/17 08:36:37;;;;;;;6.75;4.07;;;;;;;;;;5053909;28;20458;-59
2021/08/17 08:39:03;;;;;;;5.30;3.60;;;;;;;;;;5054422;28;20095;-59
2021/08/17 08:41:29;;;;;;;5.47;3.70;;;;;;;;;;5054801;28;20024;-59
2021/08/17 08:43:57;;;;;;;4.20;3.58;;;;;;;;;;5054964;28;20040;-59
2021/08/17 08:46:23;;;;;;;4.63;3.78;;;;;;;;;;5054582;28;20446;-59
2021/08/17 08:48:50;;;;;;;4.82;3.58;;;;;;;;;;5053823;28;20084;-59
2021/08/17 08:51:20;;;;;;;6.30;4.38;;;;;;;;;;5054056;28;20036;-59
2021/08/17 08:53:46;;;;;;;6.90;3.73;;;;;;;;;;5054809;28;20110;-59
2021/08/17 08:56:12;;;;;;;4.35;3.95;;;;;;;;;;5054290;28;20148;-59
2021/08/17 08:58:40;;;;;;;5.88;4.45;;;;;;;;;;5053254;28;20060;-59
2021/08/17 09:01:10;;;;;;;8.07;4.13;;;;;;;;;;5054484;28;20187;-59
2021/08/17 09:03:50;;;;;;;9.27;4.88;;;;;;;;;;5053184;28;20116;-59
2021/08/17 09:06:16;;;;;;;8.63;4.78;;;;;;;;;;5036077;28;20025;-59
2021/08/17 09:08:42;;;;;;;6.10;4.10;;;;;;;;;;5053969;28;20029;-59
2021/08/17 09:11:18;;;;;;;7.22;4.55;;;;;;;;;;5053688;28;20024;-59
2021/08/17 09:13:45;;;;;;;6.80;4.22;;;;;;;;;;5053967;28;20124;-59
2021/08/17 09:16:23;;;;;;;6.68;4.30;;;;;;;;;;5053910;28;20083;-59
2021/08/17 09:18:50;;;;;;;7.38;4.60;;;;;;;;;;5054394;28;20028;-59
2021/08/17 09:21:16;;;;;;;7.10;4.15;;;;;;;;;;5052922;28;20116;-59
2021/08/17 09:23:42;;;;;;;10.55;4.85;;;;;;;;;;5054127;28;20075;-59
2021/08/17 09:26:24;;;;;;;7.03;4.50;;;;;;;;;;5054074;28;20056;-59
2021/08/17 09:28:54;;;;;;;6.22;4.25;;;;;;;;;;5036802;28;20028;-59
2021/08/17 09:31:39;;;;;;;8.80;4.22;;;;;;;;;;5053745;28;20033;-59
2021/08/17 09:34:08;;;;;;;6.68;4.28;;;;;;;;;;5053956;28;20043;-59
2021/08/17 09:36:38;;;;;;;6.53;4.25;;;;;;;;;;5054471;28;20025;-59
2021/08/17 09:39:04;;;;;;;5.50;4.07;;;;;;;;;;5053661;28;20025;-59
2021/08/17 09:41:30;;;;;;;5.03;3.42;;;;;;;;;;5053763;28;20021;-60
2021/08/17 09:43:58;;;;;;;5.53;3.80;;;;;;;;;;5053138;28;20063;-59
2021/08/17 09:46:28;;;;;;;8.95;4.22;;;;;;;;;;5054103;28;20021;-59
2021/08/17 09:48:55;;;;;;;5.53;3.90;;;;;;;;;;5054133;28;20017;-59
2021/08/17 09:51:32;;;;;;;6.63;3.47;;;;;;;;;;5053492;28;20043;-59
2021/08/17 09:54:11;;;;;;;5.15;2.78;;;;;;;;;;5053496;28;20122;-59
2021/08/17 09:56:37;;;;;;;5.05;3.78;;;;;;;;;;5053694;28;20017;-60
2021/08/17 09:59:05;;;;;;;5.25;3.15;;;;;;;;;;5052594;28;20036;-59
2021/08/17 10:01:31;;;;;;;6.13;3.17;;;;;;;;;;5058111;28;20032;-59
2021/08/17 10:03:58;;;;;;;5.50;3.50;;;;;;;;;;5057486;28;20099;-59
2021/08/17 10:06:25;;;;;;;5.47;3.03;;;;;;;;;;5057576;28;20103;-59
2021/08/17 10:08:51;;;;;;;6.30;3.30;;;;;;;;;;5057110;28;20387;-59
2021/08/17 10:11:20;;;;;;;6.70;4.10;;;;;;;;;;5057056;28;20642;-60
2021/08/17 10:13:47;;;;;;;5.50;3.90;;;;;;;;;;5056940;28;20087;-60
2021/08/17 10:16:16;;;;;;;6.18;3.55;;;;;;;;;;5057222;28;20049;-60
2021/08/17 10:18:44;;;;;;;5.45;3.70;;;;;;;;;;5057114;28;20029;-59
2021/08/17 10:21:10;;;;;;;5.80;3.25;;;;;;;;;;5057415;28;20360;-60
2021/08/17 10:23:40;;;;;;;4.97;2.92;;;;;;;;;;5057456;28;20033;-60
2021/08/17 10:26:06;;;;;;;7.50;3.20;;;;;;;;;;5056950;28;20070;-60
2021/08/17 10:28:42;;;;;;;4.72;3.65;;;;;;;;;;5055692;28;20035;-60
2021/08/17 10:31:14;;;;;;;3.38;2.25;;;;;;;;;;5057216;28;20115;-60
2021/08/17 10:33:41;;;;;;;3.28;2.72;;;;;;;;;;5055580;28;20033;-60
2021/08/17 10:36:08;;;;;;;4.53;3.50;;;;;;;;;;5056832;28;20028;-60
2021/08/17 10:38:35;;;;;;;7.88;3.47;;;;;;;;;;5057136;28;20025;-60
2021/08/17 10:41:03;;;;;;;4.50;2.88;;;;;;;;;;5056888;28;20056;-60
2021/08/17 10:43:32;;;;;;;7.68;3.17;;;;;;;;;;5056812;28;20073;-60
2021/08/17 10:46:05;;;;;;;8.18;3.53;;;;;;;;;;5055473;28;20103;-60
2021/08/17 10:51:32;;;;;;;6.30;3.35;;;;;;;;;;5056861;28;20420;-59
2021/08/17 10:54:07;;;;;;;4.63;2.65;;;;;;;;;;5057215;28;20446;-59
2021/08/17 10:56:34;;;;;;;7.82;2.67;;;;;;;;;;5056405;28;20040;-59
2021/08/17 10:59:00;;;;;;;5.00;3.15;;;;;;;;;;5056497;28;20032;-59
2021/08/17 11:01:35;;;;;;;5.13;3.70;;;;;;;;;;5056909;28;20025;-59
2021/08/17 11:04:10;;;;;;;6.10;3.15;;;;;;;;;;5056312;28;20037;-60
2021/08/17 11:06:39;;;;;;;5.75;2.67;;;;;;;;;;5056895;28;20017;-60
2021/08/17 11:09:07;;;;;;;3.60;2.38;;;;;;;;;;5056814;28;20382;-60
2021/08/17 11:11:33;;;;;;;5.75;2.60;;;;;;;;;;5055261;28;20367;-59
2021/08/17 11:14:00;;;;;;;5.28;3.25;;;;;;;;;;5056088;28;20029;-60
2021/08/17 11:16:26;;;;;;;5.47;2.20;;;;;;;;;;5056141;28;20029;-60
2021/08/17 11:18:53;;;;;;;4.85;3.17;;;;;;;;;;5056149;28;20029;-60
2021/08/17 11:21:52;;;;;;;3.75;2.45;;;;;;;;;;5055888;28;20166;-60
2021/08/17 11:24:25;;;;;;;4.65;2.60;;;;;;;;;;5043546;28;20044;-60
2021/08/17 11:26:53;;;;;;;5.65;2.03;;;;;;;;;;5056891;28;20049;-59
2021/08/17 11:29:24;;;;;;;3.17;2.03;;;;;;;;;;5056382;28;20029;-60
2021/08/17 11:31:51;;;;;;;2.65;1.90;;;;;;;;;;5055247;28;20017;-60
2021/08/17 11:34:19;;;;;;;5.22;2.20;;;;;;;;;;5054624;28;20471;-60
2021/08/17 11:36:52;;;;;;;4.75;2.75;;;;;;;;;;5055778;28;20021;-60
2021/08/17 11:39:22;;;;;;;3.97;2.38;;;;;;;;;;5055722;28;20063;-60
2021/08/17 11:41:51;;;;;;;6.07;2.45;;;;;;;;;;5054628;28;20129;-60
2021/08/17 11:44:17;;;;;;;2.92;1.83;;;;;;;;;;5055985;28;20068;-59
2021/08/17 11:46:46;;;;;;;4.90;2.03;;;;;;;;;;5056430;28;20033;-60
2021/08/17 11:49:18;;;;;;;2.95;2.20;;;;;;;;;;5055749;28;20028;-60
2021/08/17 11:51:44;;;;;;;4.72;2.00;;;;;;;;;;5056134;28;20028;-60
2021/08/17 11:54:14;;;;;;;3.90;2.20;;;;;;;;;;5055548;28;20116;-60
2021/08/17 11:56:40;;;;;;;3.75;2.17;;;;;;;;;;5055670;28;20112;-60
2021/08/17 11:59:06;;;;;;;3.47;2.17;;;;;;;;;;5055264;28;20025;-60
2021/08/17 12:01:32;;;;;;;3.70;2.55;;;;;;;;;;5055644;28;20056;-60
2021/08/17 12:04:08;;;;;;;3.10;1.67;;;;;;;;;;5055048;28;20059;-60
2021/08/17 12:06:34;;;;;;;3.85;2.65;;;;;;;;;;5055146;28;20075;-60
2021/08/17 12:09:21;;;;;;;4.15;2.35;;;;;;;;;;5055639;28;20055;-60
2021/08/17 12:11:56;;;;;;;5.18;2.40;;;;;;;;;;5055426;28;20025;-60
2021/08/17 12:14:26;;;;;;;11.73;3.30;;;;;;;;;;5054322;28;20029;-60
2021/08/17 12:16:55;;;;;;;4.80;2.42;;;;;;;;;;5054959;28;20055;-60
2021/08/17 12:19:22;;;;;;;4.05;2.50;;;;;;;;;;5054928;28;20013;-60
2021/08/17 12:21:48;;;;;;;4.40;2.85;;;;;;;;;;5054963;28;20028;-60
2021/08/17 12:24:27;;;;;;;4.68;2.50;;;;;;;;;;5054740;28;20025;-60
2021/08/17 12:26:54;;;;;;;4.75;2.65;;;;;;;;;;5054201;28;20045;-60
2021/08/17 12:29:23;;;;;;;4.68;2.30;;;;;;;;;;5055285;28;20025;-60
2021/08/17 12:31:49;;;;;;;3.63;2.25;;;;;;;;;;5054858;28;20021;-60
2021/08/17 12:34:16;;;;;;;3.80;2.55;;;;;;;;;;5055356;28;20029;-60
2021/08/17 12:36:43;;;;;;;4.72;2.75;;;;;;;;;;5054345;28;20474;-60
2021/08/17 12:39:26;;;;;;;3.72;2.88;;;;;;;;;;5054502;28;20021;-59
2021/08/17 12:41:53;;;;;;;3.47;2.35;;;;;;;;;;5055397;28;20025;-60
2021/08/17 12:44:21;;;;;;;5.20;2.83;;;;;;;;;;5054509;28;20036;-60
2021/08/17 12:46:57;;;;;;;5.38;3.10;;;;;;;;;;5053147;28;20025;-60
2021/08/17 12:49:23;;;;;;;4.10;2.55;;;;;;;;;;5054391;28;20024;-60
2021/08/17 12:51:49;;;;;;;4.05;2.72;;;;;;;;;;5054667;28;20021;-60
2021/08/17 12:54:15;;;;;;;4.35;2.90;;;;;;;;;;5054095;28;20037;-59
2021/08/17 12:56:41;;;;;;;5.85;2.75;;;;;;;;;;5054075;28;20024;-60
2021/08/17 12:59:07;;;;;;;5.97;2.63;;;;;;;;;;5052842;28;20047;-60
2021/08/17 13:01:33;;;;;;;7.00;3.22;;;;;;;;;;5054428;28;20032;-60
2021/08/17 13:03:59;;;;;;;5.13;3.33;;;;;;;;;;5053847;28;20021;-60
2021/08/17 13:06:25;;;;;;;5.65;3.47;;;;;;;;;;5054685;28;20060;-60
2021/08/17 13:08:51;;;;;;;6.15;3.63;;;;;;;;;;5053990;28;20031;-60
2021/08/17 13:11:17;;;;;;;5.25;2.92;;;;;;;;;;5054012;28;20021;-60
2021/08/17 13:13:44;;;;;;;4.72;3.25;;;;;;;;;;5053819;28;20029;-60
2021/08/17 13:16:10;;;;;;;4.80;2.88;;;;;;;;;;5053841;28;20029;-60
2021/08/17 13:18:36;;;;;;;3.83;2.50;;;;;;;;;;5054407;28;20017;-60
2021/08/17 13:21:02;;;;;;;5.47;3.22;;;;;;;;;;5054112;28;20103;-60
2021/08/17 13:23:27;;;;;;;5.40;3.50;;;;;;;;;;5053817;28;20028;-59
2021/08/17 13:25:53;;;;;;;6.47;2.90;;;;;;;;;;5053455;28;20098;-59
2021/08/17 13:28:22;;;;;;;6.38;3.15;;;;;;;;;;5053800;28;20535;-59
2021/08/17 13:30:48;;;;;;;7.32;3.40;;;;;;;;;;5053694;28;20056;-59
2021/08/17 13:33:14;;;;;;;5.50;3.45;;;;;;;;;;5053905;28;20106;-59
2021/08/17 13:35:40;;;;;;;4.97;3.70;;;;;;;;;;5051821;28;20029;-59
2021/08/17 13:38:06;;;;;;;4.40;2.97;;;;;;;;;;5053960;28;20047;-59
2021/08/17 13:40:32;;;;;;;4.90;3.17;;;;;;;;;;5053649;28;20029;-59
2021/08/17 13:42:59;;;;;;;5.20;3.38;;;;;;;;;;5052387;28;20025;-59
2021/08/17 13:45:25;;;;;;;5.45;2.92;;;;;;;;;;5053711;28;20021;-59
2021/08/17 13:47:51;;;;;;;7.15;3.10;;;;;;;;;;5053883;28;20355;-59
2021/08/17 13:50:17;;;;;;;5.10;3.17;;;;;;;;;;5054122;28;20045;-59
2021/08/17 13:52:43;;;;;;;4.70;2.83;;;;;;;;;;5053237;28;20037;-59
2021/08/17 13:55:09;;;;;;;4.88;3.53;;;;;;;;;;5053256;28;20375;-59
2021/08/17 13:57:35;;;;;;;4.05;2.90;;;;;;;;;;5052259;28;20413;-59
2021/08/17 14:00:01;;;;;;;4.82;2.83;;;;;;;;;;5053476;28;20074;-59
2021/08/17 14:02:28;;;;;;;5.25;3.50;;;;;;;;;;5053046;28;20029;-59
2021/08/17 14:04:54;;;;;;;3.65;2.67;;;;;;;;;;5053431;28;20017;-59
2021/08/17 14:07:20;;;;;;;5.50;3.00;;;;;;;;;;5053390;28;20343;-59
2021/08/17 14:09:46;;;;;;;4.25;2.97;;;;;;;;;;5053912;28;20107;-59
2021/08/17 14:12:12;;;;;;;3.97;3.00;;;;;;;;;;5054071;28;20035;-59
2021/08/17 14:14:38;;;;;;;5.68;3.17;;;;;;;;;;5053278;28;20520;-59
2021/08/17 14:17:04;;;;;;;5.57;3.55;;;;;;;;;;5054114;28;20033;-59
2021/08/17 14:19:30;;;;;;;7.80;3.58;;;;;;;;;;5053321;28;20021;-59
2021/08/17 14:21:56;;;;;;;4.30;2.72;;;;;;;;;;5053057;28;20102;-59
2021/08/17 14:24:22;;;;;;;4.80;3.40;;;;;;;;;;5053742;28;20044;-59
2021/08/17 14:26:48;;;;;;;4.35;2.92;;;;;;;;;;5053604;28;20526;-59
2021/08/17 14:29:14;;;;;;;5.68;3.80;;;;;;;;;;5053516;28;20351;-59
2021/08/17 14:31:40;;;;;;;4.05;3.05;;;;;;;;;;5053727;28;20119;-60
2021/08/17 14:34:07;;;;;;;5.03;3.28;;;;;;;;;;5052933;28;20032;-60
2021/08/17 14:36:33;;;;;;;4.47;3.00;;;;;;;;;;5053387;28;20067;-60
2021/08/17 14:39:01;;;;;;;6.32;3.28;;;;;;;;;;5052795;28;20025;-57
2021/08/17 14:41:27;;;;;;;4.25;2.75;;;;;;;;;;5053398;28;20036;-57
2021/08/17 14:43:54;;;;;;;4.43;3.00;;;;;;;;;;5052693;28;20406;-57
2021/08/17 14:46:20;;;;;;;4.93;3.08;;;;;;;;;;5055665;28;20055;-57